createdAt,value
2019-03-04T00:01:03.997Z,6.10
2019-03-04T00:03:33.591Z,6.10
2019-03-04T00:06:03.278Z,6.00
2019-03-04T00:08:33.037Z,6.00
2019-03-04T00:11:02.681Z,5.90
2019-03-04T00:13:32.347Z,5.80
2019-03-04T00:16:01.964Z,5.70
2019-03-04T00:18:31.622Z,5.80
2019-03-04T00:21:01.233Z,6.00
2019-03-04T00:23:30.820Z,6.40
2019-03-04T00:26:00.425Z,6.60
2019-03-04T00:28:30.033Z,6.70
2019-03-04T00:30:59.696Z,6.80
2019-03-04T00:33:29.312Z,6.90
2019-03-04T00:35:58.924Z,6.90
2019-03-04T00:38:28.506Z,7.10
2019-03-04T00:40:58.123Z,7.10
2019-03-04T00:43:27.733Z,7.00
2019-03-04T00:45:57.316Z,6.90
2019-03-04T00:48:26.931Z,6.60
2019-03-04T00:50:56.516Z,6.70
2019-03-04T00:53:26.210Z,6.60
2019-03-04T00:55:55.800Z,6.30
2019-03-04T00:58:25.393Z,6.00
2019-03-04T01:00:55.005Z,5.90
2019-03-04T01:03:24.664Z,5.80
2019-03-04T01:05:54.278Z,5.60
2019-03-04T01:08:23.936Z,5.50
2019-03-04T01:10:53.762Z,5.60
2019-03-04T01:13:24.586Z,5.50
2019-03-04T01:15:54.219Z,5.40
2019-03-04T01:18:23.803Z,5.40
2019-03-04T01:20:53.390Z,5.40
2019-03-04T01:23:23.007Z,5.40
2019-03-04T01:25:52.684Z,5.40
2019-03-04T01:28:22.274Z,5.40
2019-03-04T01:30:51.960Z,5.30
2019-03-04T01:33:21.551Z,5.30
2019-03-04T01:35:51.235Z,5.30
2019-03-04T01:38:20.817Z,5.30
2019-03-04T01:40:50.430Z,5.30
2019-03-04T01:43:20.016Z,5.30
2019-03-04T01:45:49.638Z,5.30
2019-03-04T01:48:19.390Z,5.20
2019-03-04T01:50:48.972Z,5.20
2019-03-04T01:53:18.584Z,5.30
2019-03-04T01:55:48.200Z,5.50
2019-03-04T01:58:17.809Z,5.70
2019-03-04T02:00:47.414Z,5.60
2019-03-04T02:03:17.095Z,5.60
2019-03-04T02:05:46.948Z,5.70
2019-03-04T02:08:16.758Z,5.80
2019-03-04T02:10:46.341Z,5.90
2019-03-04T02:13:15.925Z,5.90
2019-03-04T02:15:45.609Z,5.50
2019-03-04T02:18:15.233Z,5.20
2019-03-04T02:20:44.885Z,5.20
2019-03-04T02:23:14.479Z,5.10
2019-03-04T02:25:51.612Z,5.20
2019-03-04T02:28:21.215Z,5.10
2019-03-04T02:30:51.691Z,5.10
2019-03-04T02:33:21.274Z,5.00
2019-03-04T02:35:50.930Z,5.00
2019-03-04T02:38:20.613Z,5.00
2019-03-04T02:40:50.299Z,5.20
2019-03-04T02:43:19.898Z,5.30
2019-03-04T02:45:49.504Z,5.50
2019-03-04T02:48:19.085Z,5.60
2019-03-04T02:50:48.705Z,5.80
2019-03-04T02:53:18.293Z,6.00
2019-03-04T02:55:47.909Z,6.00
2019-03-04T02:58:17.517Z,6.10
2019-03-04T03:00:47.204Z,6.00
2019-03-04T03:03:16.786Z,6.10
2019-03-04T03:05:46.467Z,6.10
2019-03-04T03:08:16.077Z,6.00
2019-03-04T03:10:45.666Z,6.00
2019-03-04T03:13:15.282Z,6.00
2019-03-04T03:15:44.868Z,6.00
2019-03-04T03:18:14.478Z,5.90
2019-03-04T03:20:44.066Z,5.80
2019-03-04T03:23:13.677Z,5.80
2019-03-04T03:25:43.296Z,5.60
2019-03-04T03:28:12.884Z,5.50
2019-03-04T03:30:42.493Z,5.50
2019-03-04T03:33:12.078Z,5.30
2019-03-04T03:35:41.692Z,5.10
2019-03-04T03:38:11.303Z,5.00
2019-03-04T03:40:41.058Z,5.00
2019-03-04T03:43:10.853Z,5.00
2019-03-04T03:45:40.453Z,4.90
2019-03-04T03:48:10.071Z,4.90
2019-03-04T03:50:39.686Z,4.90
2019-03-04T03:53:09.273Z,4.80
2019-03-04T03:55:38.888Z,4.70
2019-03-04T03:58:08.478Z,4.60
2019-03-04T04:00:38.160Z,4.50
2019-03-04T04:03:07.741Z,4.50
2019-03-04T04:05:37.393Z,4.50
2019-03-04T04:08:07.148Z,4.60
2019-03-04T04:10:36.760Z,4.50
2019-03-04T04:13:06.367Z,4.30
2019-03-04T04:15:35.982Z,4.30
2019-03-04T04:18:05.633Z,4.40
2019-03-04T04:20:35.244Z,4.30
2019-03-04T04:23:04.859Z,4.30
2019-03-04T04:25:34.511Z,4.10
2019-03-04T04:28:05.772Z,4.00
2019-03-04T04:30:36.988Z,4.00
2019-03-04T04:33:06.612Z,3.90
2019-03-04T04:35:36.198Z,3.80
2019-03-04T04:38:05.855Z,3.80
2019-03-04T04:40:35.472Z,3.80
2019-03-04T04:43:05.251Z,3.70
2019-03-04T04:45:34.841Z,3.80
2019-03-04T04:48:04.613Z,3.80
2019-03-04T04:50:34.633Z,3.60
2019-03-04T04:53:04.289Z,3.60
2019-03-04T04:55:33.903Z,3.60
2019-03-04T04:58:03.557Z,3.60
2019-03-04T05:00:33.184Z,3.60
2019-03-04T05:03:02.846Z,3.60
2019-03-04T05:05:32.536Z,3.70
2019-03-04T05:08:02.120Z,3.80
2019-03-04T05:10:31.734Z,3.70
2019-03-04T05:13:01.390Z,3.80
2019-03-04T05:15:31.085Z,3.80
2019-03-04T05:18:00.671Z,4.00
2019-03-04T05:20:30.347Z,4.30
2019-03-04T05:22:59.959Z,4.60
2019-03-04T05:25:29.546Z,4.80
2019-03-04T05:27:59.169Z,4.90
2019-03-04T05:30:29.226Z,5.10
2019-03-04T05:32:58.817Z,5.20
2019-03-04T05:35:28.516Z,5.20
2019-03-04T05:37:58.107Z,5.30
2019-03-04T05:40:27.697Z,5.40
2019-03-04T05:42:57.310Z,5.40
2019-03-04T05:45:26.903Z,5.40
2019-03-04T05:47:56.520Z,5.20
2019-03-04T05:50:27.042Z,5.10
2019-03-04T05:52:56.732Z,5.10
2019-03-04T05:55:26.321Z,5.10
2019-03-04T05:57:56.002Z,5.10
2019-03-04T06:00:30.310Z,4.90
2019-03-04T06:03:04.447Z,4.60
2019-03-04T06:05:34.089Z,4.30
2019-03-04T06:08:05.368Z,4.20
2019-03-04T06:10:34.984Z,4.30
2019-03-04T06:13:04.711Z,4.30
2019-03-04T06:15:34.466Z,4.40
2019-03-04T06:18:04.200Z,4.60
2019-03-04T06:20:33.952Z,4.50
2019-03-04T06:23:03.616Z,4.50
2019-03-04T06:25:33.228Z,4.60
2019-03-04T06:28:02.851Z,4.80
2019-03-04T06:30:32.879Z,5.20
2019-03-04T06:33:02.565Z,5.30
2019-03-04T06:35:32.381Z,5.20
2019-03-04T06:38:02.113Z,5.20
2019-03-04T06:40:31.725Z,5.40
2019-03-04T06:43:01.315Z,5.30
2019-03-04T06:45:30.937Z,5.60
2019-03-04T06:48:00.587Z,6.00
2019-03-04T06:50:54.612Z,6.20
2019-03-04T06:53:40.625Z,6.20
2019-03-04T06:56:29.989Z,6.50
2019-03-04T06:59:15.256Z,6.60
2019-03-04T07:01:58.457Z,6.80
2019-03-04T07:05:06.096Z,7.10
2019-03-04T07:07:35.688Z,7.60
2019-03-04T07:10:08.881Z,8.00
2019-03-04T07:12:38.480Z,8.20
2019-03-04T07:15:09.608Z,8.40
2019-03-04T07:17:39.198Z,8.60
2019-03-04T07:20:20.703Z,8.70
2019-03-04T07:22:50.291Z,8.70
2019-03-04T07:25:19.909Z,8.70
2019-03-04T07:27:49.499Z,8.80
2019-03-04T07:30:22.501Z,9.00
2019-03-04T07:32:52.097Z,9.00
2019-03-04T07:35:21.683Z,9.20
2019-03-04T07:38:01.414Z,9.30
2019-03-04T07:40:31.017Z,9.40
2019-03-04T07:43:02.409Z,9.60
2019-03-04T07:45:32.090Z,9.70
2019-03-04T07:48:01.712Z,9.90
2019-03-04T07:50:31.310Z,10.10
2019-03-04T07:53:00.936Z,10.20
2019-03-04T07:55:30.568Z,10.40
2019-03-04T07:58:00.208Z,10.70
2019-03-04T08:00:29.832Z,11.00
2019-03-04T08:02:59.458Z,11.20
2019-03-04T08:05:29.087Z,11.40
2019-03-04T08:08:02.893Z,11.50
2019-03-04T08:11:05.409Z,11.70
2019-03-04T08:13:48.460Z,11.90
2019-03-04T08:16:18.082Z,12.00
2019-03-04T08:18:47.749Z,12.20
2019-03-04T08:21:17.372Z,12.40
2019-03-04T08:23:47.008Z,12.50
2019-03-04T08:26:16.669Z,12.50
2019-03-04T08:28:46.262Z,12.70
2019-03-04T08:31:16.095Z,12.80
2019-03-04T08:33:45.697Z,13.00
2019-03-04T08:36:15.323Z,13.40
2019-03-04T08:38:44.924Z,13.60
2019-03-04T08:41:14.785Z,13.70
2019-03-04T08:43:44.399Z,13.90
2019-03-04T08:46:14.031Z,14.10
2019-03-04T08:48:43.651Z,14.30
2019-03-04T08:51:13.323Z,14.50
2019-03-04T08:53:42.953Z,14.80
2019-03-04T08:56:12.584Z,15.00
2019-03-04T08:58:42.249Z,15.20
2019-03-04T09:01:12.213Z,15.40
2019-03-04T09:03:41.866Z,15.60
2019-03-04T09:06:11.487Z,15.60
2019-03-04T09:08:41.113Z,15.60
2019-03-04T09:11:10.809Z,15.70
2019-03-04T09:13:40.443Z,16.00
2019-03-04T09:16:10.068Z,16.00
2019-03-04T09:18:39.667Z,16.00
2019-03-04T09:21:09.292Z,15.90
2019-03-04T09:23:38.893Z,15.90
2019-03-04T09:26:11.937Z,15.90
2019-03-04T09:28:41.626Z,15.90
2019-03-04T09:31:11.245Z,15.80
2019-03-04T09:33:40.875Z,15.60
2019-03-04T09:36:10.510Z,15.60
2019-03-04T09:38:40.116Z,15.40
2019-03-04T09:41:09.743Z,15.40
2019-03-04T09:43:39.350Z,15.40
2019-03-04T09:46:09.051Z,15.40
2019-03-04T09:48:38.651Z,15.40
2019-03-04T09:51:08.382Z,15.60
2019-03-04T09:53:39.757Z,16.00
2019-03-04T09:56:09.545Z,16.30
2019-03-04T09:58:39.219Z,16.50
2019-03-04T10:01:16.148Z,16.60
2019-03-04T10:03:59.189Z,16.50
2019-03-04T10:06:53.995Z,16.40
2019-03-04T10:09:48.865Z,16.30
2019-03-04T10:12:37.532Z,16.20
2019-03-04T10:15:47.553Z,16.10
2019-03-04T10:18:39.630Z,16.00
2019-03-04T10:21:31.414Z,16.00
2019-03-04T10:24:20.239Z,16.20
2019-03-04T10:27:25.446Z,16.30
2019-03-04T10:30:20.133Z,16.50
2019-03-04T10:33:15.185Z,16.90
2019-03-04T10:35:57.841Z,17.00
2019-03-04T10:38:37.424Z,16.70
2019-03-04T10:41:26.377Z,16.60
2019-03-04T10:44:38.117Z,16.40
2019-03-04T10:47:07.801Z,16.40
2019-03-04T10:49:38.164Z,16.10
2019-03-04T10:52:07.771Z,16.10
2019-03-04T10:54:37.396Z,16.10
2019-03-04T10:57:07.069Z,16.10
2019-03-04T10:59:36.694Z,16.00
2019-03-04T11:02:06.501Z,15.90
2019-03-04T11:04:36.196Z,16.00
2019-03-04T11:07:05.937Z,16.00
2019-03-04T11:09:35.573Z,15.70
2019-03-04T11:12:05.317Z,15.70
2019-03-04T11:14:34.950Z,15.70
2019-03-04T11:17:04.646Z,15.70
2019-03-04T11:19:34.284Z,15.70
2019-03-04T11:22:04.055Z,15.80
2019-03-04T11:24:33.722Z,15.90
2019-03-04T11:27:03.492Z,16.00
2019-03-04T11:29:33.116Z,16.00
2019-03-04T11:32:03.388Z,16.10
2019-03-04T11:34:33.018Z,16.10
2019-03-04T11:37:02.623Z,16.10
2019-03-04T11:39:45.832Z,16.10
2019-03-04T11:42:15.564Z,16.00
2019-03-04T11:44:45.189Z,16.10
2019-03-04T11:47:14.798Z,16.20
2019-03-04T11:49:44.430Z,16.20
2019-03-04T11:52:14.034Z,16.00
2019-03-04T11:54:43.731Z,16.10
2019-03-04T11:57:13.427Z,16.10
2019-03-04T11:59:43.026Z,16.10
2019-03-04T12:02:14.376Z,16.10
2019-03-04T12:04:44.045Z,16.10
2019-03-04T12:07:13.808Z,16.30
2019-03-04T12:09:43.570Z,16.20
2019-03-04T12:12:13.255Z,16.20
2019-03-04T12:14:42.926Z,16.10
2019-03-04T12:17:12.666Z,16.20
2019-03-04T12:19:42.364Z,16.20
2019-03-04T12:22:12.058Z,16.20
2019-03-04T12:24:41.727Z,16.10
2019-03-04T12:27:11.517Z,16.10
2019-03-04T12:29:41.254Z,16.10
2019-03-04T12:32:12.493Z,16.10
2019-03-04T12:34:42.185Z,16.10
2019-03-04T12:37:11.784Z,16.00
2019-03-04T12:39:41.407Z,16.10
2019-03-04T12:42:11.010Z,16.20
2019-03-04T12:44:40.661Z,16.30
2019-03-04T12:47:10.258Z,16.30
2019-03-04T12:49:39.859Z,16.20
2019-03-04T12:52:09.482Z,16.40
2019-03-04T12:54:39.102Z,16.30
2019-03-04T12:57:08.779Z,16.50
2019-03-04T12:59:38.381Z,16.40
2019-03-04T13:02:08.518Z,16.20
2019-03-04T13:04:38.184Z,16.20
2019-03-04T13:07:07.843Z,16.20
2019-03-04T13:09:37.511Z,16.40
2019-03-04T13:12:07.622Z,16.50
2019-03-04T13:14:37.275Z,16.50
2019-03-04T13:17:06.944Z,16.60
2019-03-04T13:19:36.543Z,16.80
2019-03-04T13:22:08.739Z,16.80
2019-03-04T13:24:37.732Z,16.80
2019-03-04T13:27:07.432Z,16.80
2019-03-04T13:29:37.135Z,16.80
2019-03-04T13:32:06.911Z,16.70
2019-03-04T13:34:36.598Z,16.50
2019-03-04T13:37:06.338Z,16.50
2019-03-04T13:39:36.035Z,16.70
2019-03-04T13:42:05.704Z,16.60
2019-03-04T13:44:35.410Z,16.60
2019-03-04T13:47:05.140Z,16.70
2019-03-04T13:49:34.829Z,16.80
2019-03-04T13:52:04.526Z,16.90
2019-03-04T13:54:34.124Z,16.80
2019-03-04T13:57:03.822Z,16.80
2019-03-04T13:59:33.462Z,16.80
2019-03-04T14:02:03.309Z,16.90
2019-03-04T14:04:33.007Z,16.70
2019-03-04T14:07:02.638Z,16.70
2019-03-04T14:09:32.240Z,16.90
2019-03-04T14:12:01.879Z,16.90
2019-03-04T14:14:31.476Z,16.90
2019-03-04T14:17:01.411Z,16.80
2019-03-04T14:19:31.013Z,16.70
2019-03-04T14:22:00.628Z,16.70
2019-03-04T14:24:30.259Z,16.70
2019-03-04T14:26:59.969Z,16.70
2019-03-04T14:29:29.572Z,16.70
2019-03-04T14:31:59.168Z,16.60
2019-03-04T14:34:28.866Z,16.50
2019-03-04T14:36:58.469Z,16.40
2019-03-04T14:39:28.099Z,16.20
2019-03-04T14:41:57.709Z,16.20
2019-03-04T14:44:27.315Z,16.10
2019-03-04T14:46:57.214Z,16.20
2019-03-04T14:49:26.847Z,16.00
2019-03-04T14:51:56.477Z,16.00
2019-03-04T14:54:26.104Z,16.00
2019-03-04T14:56:55.703Z,16.00
2019-03-04T14:59:25.328Z,15.90
2019-03-04T15:01:54.924Z,15.90
2019-03-04T15:04:24.548Z,15.80
2019-03-04T15:06:54.172Z,15.70
2019-03-04T15:09:24.032Z,15.60
2019-03-04T15:11:53.666Z,15.50
2019-03-04T15:14:23.288Z,15.50
2019-03-04T15:17:02.753Z,15.40
2019-03-04T15:19:24.219Z,15.40
2019-03-04T15:21:53.844Z,15.40
2019-03-04T15:24:23.468Z,15.40
2019-03-04T15:26:53.136Z,15.30
2019-03-04T15:29:22.835Z,15.20
2019-03-04T15:31:52.432Z,15.30
2019-03-04T15:34:22.062Z,15.20
2019-03-04T15:36:51.862Z,15.20
2019-03-04T15:39:23.142Z,15.30
2019-03-04T15:41:52.867Z,15.30
2019-03-04T15:44:22.500Z,15.30
2019-03-04T15:46:52.104Z,15.20
2019-03-04T15:49:21.703Z,15.30
2019-03-04T15:51:51.458Z,15.30
2019-03-04T15:54:21.071Z,15.40
2019-03-04T15:56:50.694Z,15.40
2019-03-04T15:59:20.394Z,15.40
2019-03-04T16:01:49.987Z,15.40
2019-03-04T16:04:19.612Z,15.40
2019-03-04T16:06:49.281Z,15.30
2019-03-04T16:09:20.719Z,15.20
2019-03-04T16:11:50.473Z,15.10
2019-03-04T16:14:20.110Z,15.00
2019-03-04T16:16:49.709Z,14.90
2019-03-04T16:19:19.384Z,14.80
2019-03-04T16:21:49.068Z,14.80
2019-03-04T16:24:18.706Z,14.70
2019-03-04T16:26:48.301Z,14.60
2019-03-04T16:29:17.905Z,14.50
2019-03-04T16:31:47.531Z,14.50
2019-03-04T16:34:17.131Z,14.50
2019-03-04T16:36:46.758Z,14.30
2019-03-04T16:39:18.308Z,14.10
2019-03-04T16:41:47.949Z,13.90
2019-03-04T16:44:17.548Z,13.90
2019-03-04T16:46:47.217Z,13.90
2019-03-04T16:49:16.913Z,13.70
2019-03-04T16:51:46.576Z,13.70
2019-03-04T16:54:16.206Z,13.50
2019-03-04T16:56:45.809Z,13.40
2019-03-04T16:59:15.427Z,13.40
2019-03-04T17:01:45.028Z,13.30
2019-03-04T17:04:14.652Z,13.20
2019-03-04T17:06:44.516Z,13.10
2019-03-04T17:09:18.666Z,13.00
2019-03-04T17:11:48.334Z,12.90
2019-03-04T17:14:18.025Z,13.00
2019-03-04T17:16:47.656Z,13.10
2019-03-04T17:19:17.339Z,13.20
2019-03-04T17:21:47.010Z,13.20
2019-03-04T17:24:16.717Z,13.30
2019-03-04T17:26:46.388Z,13.30
2019-03-04T17:29:16.010Z,13.30
2019-03-04T17:31:45.707Z,13.30
2019-03-04T17:34:15.326Z,13.30
2019-03-04T17:36:45.023Z,13.30
2019-03-04T17:39:15.361Z,13.30
2019-03-04T17:41:44.987Z,13.20
2019-03-04T17:44:19.171Z,13.20
2019-03-04T17:46:48.822Z,13.20
2019-03-04T17:49:18.590Z,13.20
2019-03-04T17:51:48.182Z,13.10
2019-03-04T17:54:17.810Z,13.10
2019-03-04T17:56:47.433Z,13.10
2019-03-04T17:59:17.025Z,13.20
2019-03-04T18:01:46.720Z,13.20
2019-03-04T18:04:16.370Z,13.20
2019-03-04T18:06:46.089Z,13.20
2019-03-04T18:09:15.683Z,13.20
2019-03-04T18:11:45.314Z,13.20
2019-03-04T18:14:14.913Z,13.20
2019-03-04T18:16:44.550Z,13.20
2019-03-04T18:19:14.257Z,13.30
2019-03-04T18:21:43.858Z,13.30
2019-03-04T18:24:13.532Z,13.30
2019-03-04T18:26:45.763Z,13.30
2019-03-04T18:29:28.554Z,13.30
2019-03-04T18:32:28.542Z,13.40
2019-03-04T18:35:25.353Z,13.50
2019-03-04T18:38:17.721Z,13.40
2019-03-04T18:41:20.287Z,13.10
2019-03-04T18:44:22.848Z,12.60
2019-03-04T18:47:27.095Z,11.50
2019-03-04T18:49:56.696Z,10.40
2019-03-04T18:52:26.277Z,9.30
2019-03-04T18:54:55.892Z,8.70
2019-03-04T18:57:25.587Z,8.40
2019-03-04T18:59:55.204Z,8.30
2019-03-04T19:02:24.868Z,8.40
2019-03-04T19:04:54.557Z,8.40
2019-03-04T19:07:24.413Z,8.40
2019-03-04T19:09:54.028Z,8.40
2019-03-04T19:12:23.616Z,8.50
2019-03-04T19:14:53.223Z,8.60
2019-03-04T19:17:22.838Z,8.60
2019-03-04T19:19:52.431Z,8.50
2019-03-04T19:22:22.113Z,8.60
2019-03-04T19:24:51.737Z,8.60
2019-03-04T19:27:21.324Z,8.60
2019-03-04T19:29:50.914Z,8.50
2019-03-04T19:32:20.589Z,8.40
2019-03-04T19:34:50.188Z,8.40
2019-03-04T19:37:19.798Z,8.40
2019-03-04T19:39:49.389Z,8.50
2019-03-04T19:42:18.976Z,8.50
2019-03-04T19:44:48.667Z,8.60
2019-03-04T19:47:18.286Z,8.70
2019-03-04T19:49:47.938Z,8.70
2019-03-04T19:52:17.553Z,8.60
2019-03-04T19:54:47.209Z,8.70
2019-03-04T19:57:16.819Z,8.70
2019-03-04T19:59:46.480Z,8.70
2019-03-04T20:02:17.708Z,8.60
2019-03-04T20:04:47.404Z,8.60
2019-03-04T20:07:17.159Z,8.70
2019-03-04T20:09:46.776Z,8.60
2019-03-04T20:12:16.398Z,8.40
2019-03-04T20:14:45.988Z,8.30
2019-03-04T20:17:15.568Z,8.30
2019-03-04T20:19:45.257Z,8.30
2019-03-04T20:22:15.145Z,8.20
2019-03-04T20:24:44.733Z,8.30
2019-03-04T20:27:14.459Z,8.30
2019-03-04T20:29:44.068Z,8.40
2019-03-04T20:32:13.673Z,8.50
2019-03-04T20:34:43.257Z,8.50
2019-03-04T20:37:13.010Z,8.50
2019-03-04T20:39:42.622Z,8.50
2019-03-04T20:42:12.233Z,8.50
2019-03-04T20:44:41.846Z,8.50
2019-03-04T20:47:11.437Z,8.50
2019-03-04T20:49:41.044Z,8.50
2019-03-04T20:52:10.791Z,8.40
2019-03-04T20:54:40.380Z,8.30
2019-03-04T20:57:10.068Z,8.30
2019-03-04T20:59:39.662Z,8.30
2019-03-04T21:02:09.444Z,8.40
2019-03-04T21:04:39.030Z,8.40
2019-03-04T21:07:08.814Z,8.30
2019-03-04T21:09:38.744Z,8.20
2019-03-04T21:12:08.401Z,8.30
2019-03-04T21:14:38.060Z,8.30
2019-03-04T21:17:07.815Z,8.20
2019-03-04T21:19:37.607Z,8.20
2019-03-04T21:22:07.359Z,8.10
2019-03-04T21:24:37.117Z,7.90
2019-03-04T21:27:06.850Z,7.90
2019-03-04T21:30:02.258Z,7.90
2019-03-04T21:32:36.495Z,7.90
2019-03-04T21:35:51.522Z,7.90
2019-03-04T21:38:24.031Z,7.90
2019-03-04T21:41:06.680Z,7.70
2019-03-04T21:43:40.851Z,7.60
2019-03-04T21:46:34.379Z,7.80
2019-03-04T21:49:07.676Z,7.80
2019-03-04T21:51:50.632Z,7.70
2019-03-04T21:54:20.316Z,7.70
2019-03-04T21:57:00.256Z,7.70
2019-03-04T21:59:29.899Z,7.70
2019-03-04T22:02:09.492Z,7.70
2019-03-04T22:04:40.217Z,7.70
2019-03-04T22:07:09.955Z,7.80
2019-03-04T22:09:39.804Z,7.80
2019-03-04T22:12:13.345Z,7.90
2019-03-04T22:14:43.384Z,7.80
2019-03-04T22:17:13.154Z,7.60
2019-03-04T22:19:42.897Z,7.60
2019-03-04T22:22:12.572Z,7.60
2019-03-04T22:24:42.162Z,7.60
2019-03-04T22:27:11.844Z,7.60
2019-03-04T22:29:41.478Z,7.60
2019-03-04T22:32:11.122Z,7.50
2019-03-04T22:34:40.722Z,7.40
2019-03-04T22:37:10.383Z,7.50
2019-03-04T22:39:40.001Z,7.50
2019-03-04T22:42:09.586Z,7.60
2019-03-04T22:44:39.205Z,7.60
2019-03-04T22:47:08.797Z,7.50
2019-03-04T22:49:38.407Z,7.40
2019-03-04T22:52:08.085Z,7.40
2019-03-04T22:54:37.818Z,7.40
2019-03-04T22:57:07.501Z,7.50
2019-03-04T22:59:37.106Z,7.40
2019-03-04T23:02:07.206Z,7.40
2019-03-04T23:04:36.821Z,7.30
2019-03-04T23:07:09.114Z,7.20
2019-03-04T23:09:59.471Z,7.10
2019-03-04T23:12:45.436Z,7.00
2019-03-04T23:15:22.467Z,6.90
2019-03-04T23:17:52.165Z,6.80
2019-03-04T23:20:21.781Z,6.70
2019-03-04T23:22:51.394Z,6.50
2019-03-04T23:25:20.978Z,6.30
2019-03-04T23:27:50.602Z,6.20
2019-03-04T23:30:20.189Z,6.20
2019-03-04T23:32:49.775Z,6.10
2019-03-04T23:35:19.457Z,6.20
2019-03-04T23:37:49.113Z,6.20
2019-03-04T23:40:18.734Z,6.20
2019-03-04T23:42:48.317Z,6.30
2019-03-04T23:45:17.933Z,6.30
2019-03-04T23:47:47.522Z,6.30
2019-03-04T23:50:26.672Z,6.30
2019-03-04T23:52:56.257Z,6.30
2019-03-04T23:55:25.916Z,6.40
2019-03-04T23:57:55.524Z,6.50
